createdAt,value
2022-12-23T00:00:13.217Z,972.66
2022-12-23T00:01:13.145Z,972.67
2022-12-23T00:02:13.304Z,972.66
2022-12-23T00:03:13.281Z,972.67
2022-12-23T00:04:13.201Z,972.68
2022-12-23T00:05:13.100Z,972.68
2022-12-23T00:06:13.111Z,972.69
2022-12-23T00:07:13.091Z,972.69
2022-12-23T00:08:13.104Z,972.69
2022-12-23T00:09:13.081Z,972.67
2022-12-23T00:10:13.064Z,972.67
2022-12-23T00:11:13.046Z,972.65
2022-12-23T00:12:13.061Z,972.64
2022-12-23T00:13:13.003Z,972.63
2022-12-23T00:14:18.473Z,972.63
2022-12-23T00:15:12.986Z,972.63
2022-12-23T00:16:13.086Z,972.63
2022-12-23T00:17:21.965Z,972.64
2022-12-23T00:18:12.990Z,972.64
2022-12-23T00:19:12.940Z,972.62
2022-12-23T00:20:12.979Z,972.61
2022-12-23T00:21:12.918Z,972.60
2022-12-23T00:22:12.948Z,972.59
2022-12-23T00:23:12.896Z,972.59
2022-12-23T00:24:12.926Z,972.58
2022-12-23T00:25:12.872Z,972.57
2022-12-23T00:26:12.896Z,972.56
2022-12-23T00:27:12.865Z,972.55
2022-12-23T00:28:12.873Z,972.55
2022-12-23T00:29:12.853Z,972.54
2022-12-23T00:30:12.853Z,972.53
2022-12-23T00:31:12.948Z,972.51
2022-12-23T00:32:12.885Z,972.50
2022-12-23T00:33:12.828Z,972.49
2022-12-23T00:34:12.830Z,972.48
2022-12-23T00:35:12.801Z,972.47
2022-12-23T00:36:12.830Z,972.47
2022-12-23T00:37:12.783Z,972.48
2022-12-23T00:38:12.785Z,972.48
2022-12-23T00:39:12.728Z,972.46
2022-12-23T00:40:12.734Z,972.46
2022-12-23T00:41:12.712Z,972.46
2022-12-23T00:42:12.725Z,972.44
2022-12-23T00:43:12.709Z,972.42
2022-12-23T00:44:12.740Z,972.40
2022-12-23T00:45:12.664Z,972.37
2022-12-23T00:46:12.780Z,972.36
2022-12-23T00:47:12.637Z,972.34
2022-12-23T00:48:12.656Z,972.33
2022-12-23T00:49:12.626Z,972.35
2022-12-23T00:50:12.650Z,972.36
2022-12-23T00:51:12.596Z,972.36
2022-12-23T00:52:12.611Z,972.35
2022-12-23T00:53:12.592Z,972.33
2022-12-23T00:54:12.591Z,972.32
2022-12-23T00:55:12.556Z,972.29
2022-12-23T00:56:12.559Z,972.27
2022-12-23T00:57:12.546Z,972.29
2022-12-23T00:58:12.557Z,972.31
2022-12-23T00:59:12.514Z,972.27
2022-12-23T01:00:12.526Z,972.23
2022-12-23T01:01:12.611Z,972.25
2022-12-23T01:02:12.660Z,972.27
2022-12-23T01:03:12.519Z,972.27
2022-12-23T01:04:12.471Z,972.25
2022-12-23T01:05:12.448Z,972.26
2022-12-23T01:06:12.464Z,972.27
2022-12-23T01:07:12.420Z,972.29
2022-12-23T01:08:12.460Z,972.28
2022-12-23T01:09:12.403Z,972.28
2022-12-23T01:10:12.428Z,972.26
2022-12-23T01:11:12.387Z,972.26
2022-12-23T01:12:12.392Z,972.25
2022-12-23T01:13:12.360Z,972.26
2022-12-23T01:14:12.386Z,972.26
2022-12-23T01:15:12.355Z,972.27
2022-12-23T01:16:17.313Z,972.27
2022-12-23T01:17:12.395Z,972.28
2022-12-23T01:18:12.318Z,972.27
2022-12-23T01:19:12.298Z,972.27
2022-12-23T01:20:12.316Z,972.26
2022-12-23T01:21:12.272Z,972.23
2022-12-23T01:22:12.287Z,972.21
2022-12-23T01:23:12.254Z,972.21
2022-12-23T01:24:12.272Z,972.21
2022-12-23T01:25:12.239Z,972.22
2022-12-23T01:26:12.243Z,972.24
2022-12-23T01:27:12.217Z,972.26
2022-12-23T01:28:12.215Z,972.29
2022-12-23T01:29:12.204Z,972.31
2022-12-23T01:30:12.196Z,972.32
2022-12-23T01:31:12.167Z,972.35
2022-12-23T01:32:12.204Z,972.35
2022-12-23T01:33:12.142Z,972.35
2022-12-23T01:34:12.151Z,972.35
2022-12-23T01:35:12.131Z,972.38
2022-12-23T01:36:12.133Z,972.40
2022-12-23T01:37:12.107Z,972.44
2022-12-23T01:38:12.123Z,972.43
2022-12-23T01:39:12.085Z,972.41
2022-12-23T01:40:12.099Z,972.40
2022-12-23T01:41:12.088Z,972.39
2022-12-23T01:42:12.062Z,972.37
2022-12-23T01:43:12.065Z,972.34
2022-12-23T01:44:12.027Z,972.32
2022-12-23T01:45:12.042Z,972.30
2022-12-23T01:46:12.041Z,972.27
2022-12-23T01:47:12.034Z,972.24
2022-12-23T01:48:12.005Z,972.23
2022-12-23T01:49:11.999Z,972.21
2022-12-23T01:50:11.967Z,972.20
2022-12-23T01:51:11.970Z,972.20
2022-12-23T01:52:11.940Z,972.21
2022-12-23T01:53:11.992Z,972.22
2022-12-23T01:54:11.923Z,972.22
2022-12-23T01:55:11.943Z,972.22
2022-12-23T01:56:11.911Z,972.22
2022-12-23T01:57:11.911Z,972.21
2022-12-23T01:58:11.895Z,972.19
2022-12-23T01:59:11.907Z,972.16
2022-12-23T02:00:11.869Z,972.16
2022-12-23T02:01:11.885Z,972.17
2022-12-23T02:02:12.067Z,972.21
2022-12-23T02:03:11.928Z,972.23
2022-12-23T02:04:11.808Z,972.23
2022-12-23T02:05:11.837Z,972.23
2022-12-23T02:06:11.791Z,972.23
2022-12-23T02:07:11.812Z,972.23
2022-12-23T02:08:11.772Z,972.24
2022-12-23T02:09:11.805Z,972.25
2022-12-23T02:10:11.747Z,972.27
2022-12-23T02:11:11.773Z,972.31
2022-12-23T02:12:11.733Z,972.34
2022-12-23T02:13:11.757Z,972.35
2022-12-23T02:14:11.701Z,972.37
2022-12-23T02:15:11.719Z,972.37
2022-12-23T02:16:11.696Z,972.37
2022-12-23T02:17:11.734Z,972.35
2022-12-23T02:18:11.659Z,972.34
2022-12-23T02:19:11.679Z,972.35
2022-12-23T02:20:11.636Z,972.36
2022-12-23T02:21:11.665Z,972.37
2022-12-23T02:22:11.615Z,972.38
2022-12-23T02:23:11.624Z,972.37
2022-12-23T02:24:11.593Z,972.37
2022-12-23T02:25:11.615Z,972.36
2022-12-23T02:26:11.610Z,972.38
2022-12-23T02:27:11.588Z,972.38
2022-12-23T02:28:11.550Z,972.37
2022-12-23T02:29:11.572Z,972.36
2022-12-23T02:30:11.530Z,972.34
2022-12-23T02:31:11.595Z,972.35
2022-12-23T02:32:11.523Z,972.36
2022-12-23T02:33:11.531Z,972.36
2022-12-23T02:34:11.491Z,972.36
2022-12-23T02:35:11.491Z,972.35
2022-12-23T02:36:11.477Z,972.33
2022-12-23T02:37:11.477Z,972.33
2022-12-23T02:38:11.467Z,972.33
2022-12-23T02:39:11.460Z,972.32
2022-12-23T02:40:11.420Z,972.32
2022-12-23T02:41:11.424Z,972.32
2022-12-23T02:42:11.405Z,972.32
2022-12-23T02:43:11.430Z,972.32
2022-12-23T02:44:11.381Z,972.31
2022-12-23T02:45:11.394Z,972.31
2022-12-23T02:46:11.417Z,972.31
2022-12-23T02:47:11.384Z,972.30
2022-12-23T02:48:11.348Z,972.30
2022-12-23T02:49:11.345Z,972.30
2022-12-23T02:50:11.326Z,972.30
2022-12-23T02:51:11.321Z,972.31
2022-12-23T02:52:11.303Z,972.31
2022-12-23T02:53:11.322Z,972.30
2022-12-23T02:54:11.295Z,972.30
2022-12-23T02:55:11.283Z,972.30
2022-12-23T02:56:11.250Z,972.28
2022-12-23T02:57:11.265Z,972.26
2022-12-23T02:58:11.253Z,972.23
2022-12-23T02:59:11.249Z,972.22
2022-12-23T03:00:11.208Z,972.22
2022-12-23T03:01:11.242Z,972.21
2022-12-23T03:02:11.341Z,972.19
2022-12-23T03:03:11.340Z,972.18
2022-12-23T03:04:11.186Z,972.18
2022-12-23T03:05:11.183Z,972.17
2022-12-23T03:06:11.146Z,972.16
2022-12-23T03:07:18.235Z,972.17
2022-12-23T03:08:11.127Z,972.19
2022-12-23T03:09:11.128Z,972.21
2022-12-23T03:10:11.099Z,972.22
2022-12-23T03:11:11.125Z,972.23
2022-12-23T03:12:11.080Z,972.22
2022-12-23T03:13:11.097Z,972.20
2022-12-23T03:14:11.054Z,972.17
2022-12-23T03:15:11.071Z,972.15
2022-12-23T03:16:11.128Z,972.15
2022-12-23T03:17:11.059Z,972.16
2022-12-23T03:18:11.015Z,972.19
2022-12-23T03:19:11.036Z,972.21
2022-12-23T03:20:10.994Z,972.21
2022-12-23T03:21:11.022Z,972.20
2022-12-23T03:22:10.975Z,972.20
2022-12-23T03:23:10.974Z,972.19
2022-12-23T03:24:10.949Z,972.18
2022-12-23T03:25:10.953Z,972.20
2022-12-23T03:26:10.952Z,972.22
2022-12-23T03:27:10.956Z,972.23
2022-12-23T03:28:10.907Z,972.24
2022-12-23T03:29:10.908Z,972.24
2022-12-23T03:30:10.882Z,972.24
2022-12-23T03:31:10.970Z,972.25
2022-12-23T03:32:10.875Z,972.26
2022-12-23T03:33:10.873Z,972.28
2022-12-23T03:34:10.843Z,972.30
2022-12-23T03:35:10.859Z,972.31
2022-12-23T03:36:10.815Z,972.30
2022-12-23T03:37:10.827Z,972.31
2022-12-23T03:38:10.795Z,972.29
2022-12-23T03:39:10.810Z,972.28
2022-12-23T03:40:10.777Z,972.29
2022-12-23T03:41:10.798Z,972.29
2022-12-23T03:42:10.765Z,972.28
2022-12-23T03:43:10.769Z,972.28
2022-12-23T03:44:10.737Z,972.29
2022-12-23T03:45:40.067Z,972.30
2022-12-23T03:46:10.784Z,972.31
2022-12-23T03:47:10.727Z,972.30
2022-12-23T03:48:10.699Z,972.27
2022-12-23T03:49:10.699Z,972.27
2022-12-23T03:50:10.665Z,972.28
2022-12-23T03:51:10.676Z,972.27
2022-12-23T03:52:13.461Z,972.29
2022-12-23T03:53:10.671Z,972.32
2022-12-23T03:54:10.634Z,972.33
2022-12-23T03:55:10.630Z,972.35
2022-12-23T03:56:10.603Z,972.35
2022-12-23T03:57:10.606Z,972.34
2022-12-23T03:58:10.613Z,972.35
2022-12-23T03:59:10.595Z,972.34
2022-12-23T04:00:10.575Z,972.33
2022-12-23T04:01:10.574Z,972.35
2022-12-23T04:02:10.639Z,972.35
2022-12-23T04:03:10.550Z,972.35
2022-12-23T04:04:10.578Z,972.35
2022-12-23T04:05:10.542Z,972.37
2022-12-23T04:06:10.506Z,972.39
2022-12-23T04:07:10.521Z,972.40
2022-12-23T04:08:10.486Z,972.40
2022-12-23T04:09:10.491Z,972.40
2022-12-23T04:10:10.460Z,972.41
2022-12-23T04:11:10.471Z,972.42
2022-12-23T04:12:10.435Z,972.44
2022-12-23T04:13:10.455Z,972.47
2022-12-23T04:14:10.411Z,972.48
2022-12-23T04:15:13.092Z,972.50
2022-12-23T04:16:10.488Z,972.52
2022-12-23T04:17:10.402Z,972.51
2022-12-23T04:18:10.377Z,972.50
2022-12-23T04:19:10.384Z,972.49
2022-12-23T04:20:10.360Z,972.51
2022-12-23T04:21:10.383Z,972.52
2022-12-23T04:22:10.327Z,972.53
2022-12-23T04:23:10.324Z,972.54
2022-12-23T04:24:10.303Z,972.53
2022-12-23T04:25:10.339Z,972.54
2022-12-23T04:26:10.296Z,972.54
2022-12-23T04:27:10.283Z,972.57
2022-12-23T04:28:10.258Z,972.59
2022-12-23T04:29:10.277Z,972.60
2022-12-23T04:30:10.236Z,972.59
2022-12-23T04:31:10.304Z,972.60
2022-12-23T04:32:10.222Z,972.62
2022-12-23T04:33:10.235Z,972.62
2022-12-23T04:34:10.188Z,972.62
2022-12-23T04:35:10.209Z,972.60
2022-12-23T04:36:10.172Z,972.59
2022-12-23T04:37:10.193Z,972.59
2022-12-23T04:38:10.145Z,972.59
2022-12-23T04:39:10.174Z,972.60
2022-12-23T04:40:10.141Z,972.61
2022-12-23T04:41:10.145Z,972.61
2022-12-23T04:42:10.106Z,972.60
2022-12-23T04:43:10.117Z,972.60
2022-12-23T04:44:10.098Z,972.61
2022-12-23T04:45:10.104Z,972.61
2022-12-23T04:46:10.102Z,972.62
2022-12-23T04:47:10.112Z,972.63
2022-12-23T04:48:10.056Z,972.65
2022-12-23T04:49:10.071Z,972.66
2022-12-23T04:50:10.020Z,972.70
2022-12-23T04:51:10.041Z,972.72
2022-12-23T04:52:10.005Z,972.74
2022-12-23T04:53:10.008Z,972.76
2022-12-23T04:54:09.997Z,972.78
2022-12-23T04:55:10.017Z,972.78
2022-12-23T04:56:09.964Z,972.79
2022-12-23T04:57:09.999Z,972.81
2022-12-23T04:58:09.940Z,972.84
2022-12-23T04:59:09.956Z,972.87
2022-12-23T05:00:09.911Z,972.88
2022-12-23T05:01:10.048Z,972.89
2022-12-23T05:02:10.091Z,972.89
2022-12-23T05:03:10.015Z,972.91
2022-12-23T05:04:09.888Z,972.91
2022-12-23T05:05:09.878Z,972.92
2022-12-23T05:06:09.875Z,972.93
2022-12-23T05:07:09.866Z,972.97
2022-12-23T05:08:09.826Z,972.98
2022-12-23T05:09:09.830Z,972.98
2022-12-23T05:10:09.825Z,972.97
2022-12-23T05:11:09.823Z,972.96
2022-12-23T05:12:09.780Z,972.96
2022-12-23T05:13:09.808Z,972.97
2022-12-23T05:14:09.760Z,972.98
2022-12-23T05:15:09.770Z,973.00
2022-12-23T05:16:09.818Z,973.03
2022-12-23T05:17:09.758Z,973.03
2022-12-23T05:18:09.721Z,973.05
2022-12-23T05:19:09.735Z,973.06
2022-12-23T05:20:09.701Z,973.07
2022-12-23T05:21:09.701Z,973.06
2022-12-23T05:22:09.696Z,973.10
2022-12-23T05:23:09.688Z,973.12
2022-12-23T05:24:09.657Z,973.12
2022-12-23T05:25:09.656Z,973.10
2022-12-23T05:26:09.637Z,973.10
2022-12-23T05:27:09.664Z,973.13
2022-12-23T05:28:09.624Z,973.15
2022-12-23T05:29:09.631Z,973.17
2022-12-23T05:30:09.609Z,973.18
2022-12-23T05:31:09.639Z,973.18
2022-12-23T05:32:09.676Z,973.17
2022-12-23T05:33:09.660Z,973.17
2022-12-23T05:34:09.633Z,973.16
2022-12-23T05:35:09.553Z,973.17
2022-12-23T05:36:09.522Z,973.21
2022-12-23T05:37:09.548Z,973.20
2022-12-23T05:38:09.514Z,973.20
2022-12-23T05:39:09.513Z,973.20
2022-12-23T05:40:09.478Z,973.21
2022-12-23T05:41:09.503Z,973.21
2022-12-23T05:42:09.467Z,973.22
2022-12-23T05:43:09.458Z,973.21
2022-12-23T05:44:09.438Z,973.18
2022-12-23T05:45:09.452Z,973.16
2022-12-23T05:46:09.464Z,973.17
2022-12-23T05:47:09.414Z,973.16
2022-12-23T05:48:09.391Z,973.18
2022-12-23T05:49:09.396Z,973.18
2022-12-23T05:50:09.391Z,973.22
2022-12-23T05:51:09.407Z,973.24
2022-12-23T05:52:09.351Z,973.28
2022-12-23T05:53:09.376Z,973.31
2022-12-23T05:54:09.342Z,973.32
2022-12-23T05:55:09.340Z,973.35
2022-12-23T05:56:09.305Z,973.35
2022-12-23T05:57:09.293Z,973.38
2022-12-23T05:58:09.315Z,973.38
2022-12-23T05:59:09.271Z,973.38
2022-12-23T06:00:09.306Z,973.37
2022-12-23T06:01:09.262Z,973.37
2022-12-23T06:02:09.502Z,973.37
2022-12-23T06:03:09.384Z,973.40
2022-12-23T06:04:09.407Z,973.40
2022-12-23T06:05:09.212Z,973.40
2022-12-23T06:06:09.220Z,973.41
2022-12-23T06:07:09.188Z,973.43
2022-12-23T06:08:09.210Z,973.46
2022-12-23T06:09:09.163Z,973.48
2022-12-23T06:10:09.190Z,973.49
2022-12-23T06:11:09.150Z,973.51
2022-12-23T06:12:09.161Z,973.53
2022-12-23T06:13:09.120Z,973.55
2022-12-23T06:14:09.126Z,973.59
2022-12-23T06:15:09.104Z,973.60
2022-12-23T06:16:09.185Z,973.61
2022-12-23T06:17:09.155Z,973.62
2022-12-23T06:18:09.079Z,973.61
2022-12-23T06:19:09.062Z,973.64
2022-12-23T06:20:12.139Z,973.63
2022-12-23T06:21:09.056Z,973.61
2022-12-23T06:22:09.050Z,973.59
2022-12-23T06:23:09.016Z,973.63
2022-12-23T06:24:09.033Z,973.67
2022-12-23T06:25:08.987Z,973.68
2022-12-23T06:26:09.014Z,973.71
2022-12-23T06:27:08.967Z,973.74
2022-12-23T06:28:09.004Z,973.74
2022-12-23T06:29:08.949Z,973.72
2022-12-23T06:30:08.954Z,973.70
2022-12-23T06:31:08.931Z,973.66
2022-12-23T06:32:09.077Z,973.65
2022-12-23T06:33:08.906Z,973.64
2022-12-23T06:34:08.925Z,973.67
2022-12-23T06:35:08.920Z,973.71
2022-12-23T06:36:08.900Z,973.75
2022-12-23T06:37:08.870Z,973.77
2022-12-23T06:38:12.017Z,973.79
2022-12-23T06:39:08.786Z,973.82
2022-12-23T06:40:08.812Z,973.86
2022-12-23T06:41:08.778Z,973.87
2022-12-23T06:42:08.854Z,973.85
2022-12-23T06:43:08.797Z,973.80
2022-12-23T06:44:08.812Z,973.80
2022-12-23T06:45:08.780Z,973.79
2022-12-23T06:46:08.826Z,973.79
2022-12-23T06:47:08.758Z,973.81
2022-12-23T06:48:08.773Z,973.84
2022-12-23T06:49:13.171Z,973.86
2022-12-23T06:50:08.741Z,973.89
2022-12-23T06:51:08.707Z,973.94
2022-12-23T06:52:08.726Z,973.98
2022-12-23T06:53:08.701Z,974.01
2022-12-23T06:54:08.699Z,974.04
2022-12-23T06:55:08.613Z,974.00
2022-12-23T06:56:08.629Z,974.03
2022-12-23T06:57:08.630Z,974.06
2022-12-23T06:58:08.614Z,974.10
2022-12-23T06:59:08.594Z,974.08
2022-12-23T07:00:08.584Z,974.07
2022-12-23T07:01:10.100Z,974.05
2022-12-23T07:02:08.704Z,974.08
2022-12-23T07:03:08.816Z,974.07
2022-12-23T07:04:08.550Z,974.06
2022-12-23T07:05:08.514Z,974.07
2022-12-23T07:06:08.515Z,974.08
2022-12-23T07:07:08.491Z,974.11
2022-12-23T07:08:08.500Z,974.11
2022-12-23T07:09:08.467Z,974.12
2022-12-23T07:10:08.463Z,974.12
2022-12-23T07:11:08.452Z,974.13
2022-12-23T07:12:08.445Z,974.17
2022-12-23T07:13:08.430Z,974.20
2022-12-23T07:14:08.433Z,974.23
2022-12-23T07:15:08.413Z,974.25
2022-12-23T07:16:08.469Z,974.26
2022-12-23T07:17:08.439Z,974.27
2022-12-23T07:18:08.389Z,974.26
2022-12-23T07:19:08.348Z,974.27
2022-12-23T07:20:08.363Z,974.29
2022-12-23T07:21:16.326Z,974.27
2022-12-23T07:22:08.394Z,974.33
2022-12-23T07:23:08.323Z,974.34
2022-12-23T07:24:08.320Z,974.34
2022-12-23T07:25:08.291Z,974.35
2022-12-23T07:26:08.316Z,974.36
2022-12-23T07:27:08.374Z,974.37
2022-12-23T07:28:08.294Z,974.40
2022-12-23T07:29:08.246Z,974.43
2022-12-23T07:30:11.879Z,974.43
2022-12-23T07:31:08.946Z,974.40
2022-12-23T07:32:08.376Z,974.40
2022-12-23T07:33:08.198Z,974.42
2022-12-23T07:34:08.248Z,974.42
2022-12-23T07:35:08.202Z,974.41
2022-12-23T07:36:08.282Z,974.44
2022-12-23T07:37:08.191Z,974.50
2022-12-23T07:38:08.162Z,974.54
2022-12-23T07:39:08.141Z,974.56
2022-12-23T07:40:08.942Z,974.54
2022-12-23T07:41:08.121Z,974.54
2022-12-23T07:42:42.686Z,974.52
2022-12-23T07:43:08.112Z,974.53
2022-12-23T07:44:08.125Z,974.55
2022-12-23T07:45:08.084Z,974.55
2022-12-23T07:46:08.138Z,974.54
2022-12-23T07:47:08.059Z,974.52
2022-12-23T07:48:08.099Z,974.54
2022-12-23T07:49:08.061Z,974.53
2022-12-23T07:50:08.059Z,974.54
2022-12-23T07:51:08.024Z,974.52
2022-12-23T07:52:08.101Z,974.51
2022-12-23T07:53:08.032Z,974.48
2022-12-23T07:54:08.006Z,974.49
2022-12-23T07:55:07.996Z,974.51
2022-12-23T07:56:08.018Z,974.55
2022-12-23T07:57:07.941Z,974.58
2022-12-23T07:58:07.962Z,974.56
2022-12-23T07:59:07.931Z,974.58
2022-12-23T08:00:07.943Z,974.59
2022-12-23T08:01:08.069Z,974.57
2022-12-23T08:02:08.051Z,974.55
2022-12-23T08:03:08.033Z,974.53
2022-12-23T08:04:07.902Z,974.51
2022-12-23T08:05:08.004Z,974.50
2022-12-23T08:06:07.896Z,974.51
2022-12-23T08:07:07.836Z,974.49
2022-12-23T08:08:07.853Z,974.47
2022-12-23T08:09:07.816Z,974.47
2022-12-23T08:10:07.841Z,974.46
2022-12-23T08:11:07.798Z,974.45
2022-12-23T08:12:07.841Z,974.47
2022-12-23T08:13:07.788Z,974.47
2022-12-23T08:14:07.779Z,974.47
2022-12-23T08:15:07.772Z,974.50
2022-12-23T08:16:07.899Z,974.50
2022-12-23T08:17:07.786Z,974.49
2022-12-23T08:18:07.746Z,974.50
2022-12-23T08:19:07.732Z,974.50
2022-12-23T08:20:07.705Z,974.48
2022-12-23T08:21:07.701Z,974.45
2022-12-23T08:22:07.696Z,974.44
2022-12-23T08:23:07.689Z,974.41
2022-12-23T08:24:07.677Z,974.43
2022-12-23T08:25:07.679Z,974.44
2022-12-23T08:26:07.651Z,974.45
2022-12-23T08:27:07.641Z,974.47
2022-12-23T08:28:07.658Z,974.48
2022-12-23T08:29:07.608Z,974.50
2022-12-23T08:30:07.623Z,974.52
2022-12-23T08:31:07.708Z,974.53
2022-12-23T08:32:07.599Z,974.52
2022-12-23T08:33:07.565Z,974.53
2022-12-23T08:34:07.596Z,974.58
2022-12-23T08:35:07.536Z,974.65
2022-12-23T08:36:07.552Z,974.72
2022-12-23T08:37:07.549Z,974.75
2022-12-23T08:38:07.532Z,974.77
2022-12-23T08:39:07.508Z,974.81
2022-12-23T08:40:07.491Z,974.87
2022-12-23T08:41:07.481Z,974.91
2022-12-23T08:42:07.495Z,974.93
2022-12-23T08:43:07.459Z,974.96
2022-12-23T08:44:07.464Z,974.98
2022-12-23T08:45:07.424Z,975.01
2022-12-23T08:46:07.522Z,975.04
2022-12-23T08:47:07.403Z,975.07
2022-12-23T08:48:07.437Z,975.08
2022-12-23T08:49:07.387Z,975.10
2022-12-23T08:50:07.408Z,975.13
2022-12-23T08:51:07.369Z,975.13
2022-12-23T08:52:07.369Z,975.14
2022-12-23T08:53:07.349Z,975.14
2022-12-23T08:54:07.370Z,975.15
2022-12-23T08:55:07.329Z,975.13
2022-12-23T08:56:07.336Z,975.12
2022-12-23T08:57:07.317Z,975.11
2022-12-23T08:58:07.310Z,975.10
2022-12-23T08:59:07.283Z,975.08
2022-12-23T09:00:07.277Z,975.07
2022-12-23T09:01:07.281Z,975.08
2022-12-23T09:02:07.455Z,975.08
2022-12-23T09:03:07.330Z,975.08
2022-12-23T09:04:07.256Z,975.07
2022-12-23T09:05:07.212Z,975.08
2022-12-23T09:06:07.235Z,975.09
2022-12-23T09:07:07.189Z,975.10
2022-12-23T09:08:07.203Z,975.07
2022-12-23T09:09:07.162Z,975.04
2022-12-23T09:10:07.195Z,975.02
2022-12-23T09:11:07.151Z,975.01
2022-12-23T09:12:07.166Z,975.02
2022-12-23T09:13:07.124Z,975.01
2022-12-23T09:14:07.160Z,975.02
2022-12-23T09:15:07.106Z,975.02
2022-12-23T09:16:07.210Z,975.03
2022-12-23T09:17:07.095Z,975.04
2022-12-23T09:18:07.098Z,975.06
2022-12-23T09:19:07.064Z,975.07
2022-12-23T09:20:07.074Z,975.05
2022-12-23T09:21:07.054Z,975.02
2022-12-23T09:22:07.047Z,975.00
2022-12-23T09:23:07.031Z,974.98
2022-12-23T09:24:07.036Z,974.96
2022-12-23T09:25:07.417Z,974.92
2022-12-23T09:26:07.218Z,974.89
2022-12-23T09:27:07.253Z,974.88
2022-12-23T09:28:06.989Z,974.88
2022-12-23T09:29:06.953Z,974.89
2022-12-23T09:30:07.367Z,974.90
2022-12-23T09:31:06.997Z,974.90
2022-12-23T09:32:06.956Z,974.91
2022-12-23T09:33:06.910Z,974.91
2022-12-23T09:34:06.919Z,974.92
2022-12-23T09:35:06.915Z,974.94
2022-12-23T09:36:06.907Z,974.94
2022-12-23T09:37:06.887Z,974.93
2022-12-23T09:38:06.880Z,974.90
2022-12-23T09:39:06.857Z,974.88
2022-12-23T09:40:06.855Z,974.86
2022-12-23T09:41:06.855Z,974.83
2022-12-23T09:42:06.875Z,974.80
2022-12-23T09:43:06.801Z,974.80
2022-12-23T09:44:06.815Z,974.79
2022-12-23T09:45:06.771Z,974.78
2022-12-23T09:46:06.786Z,974.76
2022-12-23T09:47:06.775Z,974.74
2022-12-23T09:48:06.796Z,974.70
2022-12-23T09:49:06.740Z,974.67
2022-12-23T09:50:06.753Z,974.65
2022-12-23T09:51:06.715Z,974.65
2022-12-23T09:52:06.766Z,974.65
2022-12-23T09:53:06.703Z,974.63
2022-12-23T09:54:08.703Z,974.61
2022-12-23T09:55:06.682Z,974.62
2022-12-23T09:56:06.677Z,974.64
2022-12-23T09:57:06.666Z,974.66
2022-12-23T09:58:06.679Z,974.68
2022-12-23T09:59:06.634Z,974.68
2022-12-23T10:00:06.640Z,974.68
2022-12-23T10:01:06.610Z,974.67
2022-12-23T10:02:06.691Z,974.69
2022-12-23T10:03:06.842Z,974.73
2022-12-23T10:04:06.691Z,974.77
2022-12-23T10:05:06.599Z,974.78
2022-12-23T10:06:06.578Z,974.77
2022-12-23T10:07:06.556Z,974.74
2022-12-23T10:08:06.553Z,974.73
2022-12-23T10:09:06.515Z,974.75
2022-12-23T10:10:06.569Z,974.81
2022-12-23T10:11:06.505Z,974.85
2022-12-23T10:12:06.499Z,974.87
2022-12-23T10:13:06.496Z,974.88
2022-12-23T10:14:06.462Z,974.90
2022-12-23T10:15:06.486Z,974.90
2022-12-23T10:16:06.463Z,974.92
2022-12-23T10:17:06.472Z,974.95
2022-12-23T10:18:06.422Z,974.97
2022-12-23T10:19:06.429Z,974.97
2022-12-23T10:20:06.420Z,974.96
2022-12-23T10:21:06.423Z,974.94
2022-12-23T10:22:06.394Z,974.91
2022-12-23T10:23:06.396Z,974.88
2022-12-23T10:24:06.360Z,974.85
2022-12-23T10:25:06.385Z,974.83
2022-12-23T10:26:06.369Z,974.80
2022-12-23T10:27:06.346Z,974.78
2022-12-23T10:28:06.318Z,974.77
2022-12-23T10:29:06.319Z,974.73
2022-12-23T10:30:33.780Z,974.72
2022-12-23T10:31:31.086Z,974.73
2022-12-23T10:32:06.289Z,974.75
2022-12-23T10:33:06.279Z,974.76
2022-12-23T10:34:06.254Z,974.75
2022-12-23T10:35:06.306Z,974.73
2022-12-23T10:36:06.292Z,974.69
2022-12-23T10:37:06.337Z,974.65
2022-12-23T10:38:06.205Z,974.62
2022-12-23T10:39:06.241Z,974.62
2022-12-23T10:40:06.180Z,974.63
2022-12-23T10:41:09.537Z,974.61
2022-12-23T10:42:06.207Z,974.61
2022-12-23T10:43:06.174Z,974.63
2022-12-23T10:44:06.140Z,974.64
2022-12-23T10:45:06.146Z,974.66
2022-12-23T10:46:06.128Z,974.67
2022-12-23T10:47:06.206Z,974.65
2022-12-23T10:48:11.901Z,974.62
2022-12-23T10:49:06.127Z,974.60
2022-12-23T10:50:06.075Z,974.61
2022-12-23T10:51:06.091Z,974.63
2022-12-23T10:52:06.082Z,974.66
2022-12-23T10:53:06.073Z,974.69
2022-12-23T10:54:06.047Z,974.71
2022-12-23T10:55:06.064Z,974.73
2022-12-23T10:56:06.014Z,974.76
2022-12-23T10:57:06.062Z,974.76
2022-12-23T10:58:06.013Z,974.74
2022-12-23T10:59:06.008Z,974.72
2022-12-23T11:00:06.014Z,974.71
2022-12-23T11:01:13.914Z,974.68
2022-12-23T11:02:06.099Z,974.65
2022-12-23T11:03:06.012Z,974.62
2022-12-23T11:04:05.923Z,974.59
2022-12-23T11:05:12.457Z,974.56
2022-12-23T11:06:05.914Z,974.54
2022-12-23T11:07:42.147Z,974.53
2022-12-23T11:08:05.899Z,974.53
2022-12-23T11:09:05.920Z,974.53
2022-12-23T11:10:05.988Z,974.54
2022-12-23T11:11:05.905Z,974.53
2022-12-23T11:12:05.848Z,974.52
2022-12-23T11:13:05.842Z,974.49
2022-12-23T11:14:05.830Z,974.45
2022-12-23T11:15:05.843Z,974.44
2022-12-23T11:16:05.836Z,974.44
2022-12-23T11:17:05.861Z,974.42
2022-12-23T11:18:05.800Z,974.40
2022-12-23T11:19:05.806Z,974.36
2022-12-23T11:20:05.899Z,974.34
2022-12-23T11:21:05.770Z,974.33
2022-12-23T11:22:05.757Z,974.35
2022-12-23T11:23:05.783Z,974.37
2022-12-23T11:24:05.754Z,974.41
2022-12-23T11:25:05.774Z,974.43
2022-12-23T11:26:05.723Z,974.45
2022-12-23T11:27:05.697Z,974.44
2022-12-23T11:28:05.667Z,974.42
2022-12-23T11:29:05.699Z,974.39
2022-12-23T11:30:05.651Z,974.38
2022-12-23T11:31:05.815Z,974.37
2022-12-23T11:32:05.665Z,974.35
2022-12-23T11:33:05.684Z,974.32
2022-12-23T11:34:05.637Z,974.29
2022-12-23T11:35:05.624Z,974.29
2022-12-23T11:36:05.612Z,974.29
2022-12-23T11:37:07.653Z,974.28
2022-12-23T11:38:05.573Z,974.25
2022-12-23T11:39:05.571Z,974.20
2022-12-23T11:40:05.547Z,974.15
2022-12-23T11:41:05.565Z,974.12
2022-12-23T11:42:05.543Z,974.13
2022-12-23T11:43:05.518Z,974.15
2022-12-23T11:44:05.491Z,974.15
2022-12-23T11:45:05.513Z,974.15
2022-12-23T11:46:05.485Z,974.13
2022-12-23T11:47:05.525Z,974.11
2022-12-23T11:48:05.443Z,974.08
2022-12-23T11:49:05.474Z,974.07
2022-12-23T11:50:05.471Z,974.06
2022-12-23T11:51:05.427Z,974.04
2022-12-23T11:52:05.446Z,974.03
2022-12-23T11:53:05.450Z,974.03
2022-12-23T11:54:05.493Z,974.00
2022-12-23T11:55:05.383Z,973.95
2022-12-23T11:56:05.365Z,973.92
2022-12-23T11:57:05.487Z,973.91
2022-12-23T11:58:05.354Z,973.91
2022-12-23T11:59:05.376Z,973.89
2022-12-23T12:00:05.324Z,973.84
2022-12-23T12:01:05.375Z,973.81
2022-12-23T12:02:05.367Z,973.79
2022-12-23T12:03:05.334Z,973.77
2022-12-23T12:04:05.299Z,973.76
2022-12-23T12:05:05.303Z,973.77
2022-12-23T12:06:05.249Z,973.78
2022-12-23T12:07:05.268Z,973.79
2022-12-23T12:08:05.241Z,973.80
2022-12-23T12:09:05.240Z,973.80
2022-12-23T12:10:05.260Z,973.81
2022-12-23T12:11:05.266Z,973.82
2022-12-23T12:12:05.184Z,973.79
2022-12-23T12:13:05.209Z,973.78
2022-12-23T12:14:05.164Z,973.75
2022-12-23T12:15:05.177Z,973.72
2022-12-23T12:16:05.142Z,973.69
2022-12-23T12:17:05.199Z,973.67
2022-12-23T12:18:05.118Z,973.68
2022-12-23T12:19:05.128Z,973.70
2022-12-23T12:20:05.124Z,973.73
2022-12-23T12:21:05.106Z,973.72
2022-12-23T12:22:05.076Z,973.69
2022-12-23T12:23:05.093Z,973.68
2022-12-23T12:24:20.296Z,973.69
2022-12-23T12:25:05.110Z,973.70
2022-12-23T12:26:05.058Z,973.69
2022-12-23T12:27:05.048Z,973.67
2022-12-23T12:28:05.010Z,973.65